Time;durP1;ratioP1;P1;durP2;ratioP2;P2;SDS_P1;SDS_P2;PMS_P1;PMS_P2;Temp;Humidity;BMP_temperature;BMP_pressure;BME280_temperature;BME280_humidity;BME280_pressure;Samples;Min_cycle;Max_cycle;Signal;HPM_P1;HPM_P2
2021/06/02 00:00:04;;;;;;;11.00;4.30;;;12.50;1.00;;;;;;5035972;28;20406;-73
2021/06/02 00:02:31;;;;;;;24.57;5.33;;;12.50;1.00;;;;;;5035657;28;20801;-73
2021/06/02 00:05:01;;;;;;;13.60;4.80;;;12.50;1.00;;;;;;5052189;28;20457;-73
2021/06/02 00:07:26;;;;;;;9.80;4.80;;;12.50;1.00;;;;;;5055104;28;20425;-73
2021/06/02 00:10:01;;;;;;;5.57;4.17;;;;;;;;;;5055453;28;20426;-73
2021/06/02 00:12:49;;;;;;;6.53;4.07;;;12.50;1.00;;;;;;5043457;28;20176;-74
2021/06/02 00:15:20;;;;;;;8.43;4.37;;;;;;;;;;5044764;28;20418;-73
2021/06/02 00:18:19;;;;;;;6.37;4.50;;;12.50;1.00;;;;;;5055293;28;20473;-73
2021/06/02 00:20:50;;;;;;;15.23;4.60;;;12.50;1.00;;;;;;5055183;28;20402;-74
2021/06/02 00:23:17;;;;;;;12.20;4.80;;;;;;;;;;5050927;28;20449;-73
2021/06/02 00:25:43;;;;;;;10.33;4.13;;;12.50;1.00;;;;;;5042033;28;20725;-73
2021/06/02 00:28:09;;;;;;;9.67;4.87;;;12.40;1.00;;;;;;5035391;28;20422;-72
2021/06/02 00:30:39;;;;;;;4.83;3.57;;;12.40;1.00;;;;;;5036871;28;20399;-73
2021/06/02 00:33:07;;;;;;;6.13;4.20;;;12.40;1.00;;;;;;5054985;28;20405;-73
2021/06/02 00:35:33;;;;;;;5.60;4.10;;;12.40;1.00;;;;;;5055059;28;20403;-73
2021/06/02 00:38:08;;;;;;;5.53;4.43;;;12.40;1.00;;;;;;5055018;28;20402;-73
2021/06/02 00:40:41;;;;;;;8.07;4.13;;;12.40;1.00;;;;;;5035108;28;20410;-73
2021/06/02 00:43:07;;;;;;;8.97;4.83;;;12.40;1.00;;;;;;5035186;28;20550;-73
2021/06/02 00:45:33;;;;;;;18.83;5.23;;;12.40;1.00;;;;;;5034479;28;20396;-72
2021/06/02 00:48:01;;;;;;;11.30;4.00;;;12.40;1.00;;;;;;5034632;28;20422;-72
2021/06/02 00:50:27;;;;;;;8.00;4.73;;;;;;;;;;5034579;28;20423;-72
2021/06/02 00:52:54;;;;;;;6.67;4.40;;;12.40;1.00;;;;;;5037303;28;20434;-71
2021/06/02 00:55:21;;;;;;;17.23;4.97;;;12.40;1.00;;;;;;5034559;28;20403;-72
2021/06/02 00:57:49;;;;;;;7.10;3.80;;;12.40;1.00;;;;;;5034390;28;20420;-72
2021/06/02 01:00:16;;;;;;;7.67;4.43;;;12.40;1.00;;;;;;5034643;28;20521;-72
2021/06/02 01:02:50;;;;;;;7.33;4.20;;;12.40;1.00;;;;;;5034189;28;20443;-72
2021/06/02 01:05:17;;;;;;;7.60;4.73;;;12.40;1.00;;;;;;5034240;28;20391;-72
2021/06/02 01:07:44;;;;;;;9.47;4.70;;;12.40;1.00;;;;;;5038815;28;20415;-72
2021/06/02 01:10:11;;;;;;;5.00;4.03;;;12.40;1.00;;;;;;5054130;28;20476;-72
2021/06/02 01:12:41;;;;;;;6.90;4.50;;;12.40;1.00;;;;;;5054126;28;20850;-72
2021/06/02 01:15:20;;;;;;;8.50;4.47;;;12.40;1.00;;;;;;5054339;28;20417;-73
2021/06/02 01:17:46;;;;;;;8.00;4.00;;;12.40;1.00;;;;;;5052226;28;20402;-73
2021/06/02 01:20:12;;;;;;;3.83;3.40;;;12.40;1.00;;;;;;5054031;28;20415;-73
2021/06/02 01:22:40;;;;;;;7.70;4.90;;;12.40;1.00;;;;;;5051435;28;20819;-73
2021/06/02 01:25:26;;;;;;;8.57;4.33;;;12.40;1.00;;;;;;5051710;28;20458;-73
2021/06/02 01:28:08;;;;;;;4.27;3.30;;;12.40;1.00;;;;;;5053995;28;20414;-73
2021/06/02 01:30:37;;;;;;;6.40;4.00;;;12.30;1.00;;;;;;5042983;28;20417;-72
2021/06/02 01:33:12;;;;;;;6.57;4.33;;;12.30;1.00;;;;;;5034161;28;20398;-72
2021/06/02 01:35:58;;;;;;;7.10;4.93;;;12.30;1.00;;;;;;5033922;28;20744;-72
2021/06/02 01:38:36;;;;;;;6.37;4.43;;;12.20;1.00;;;;;;5033816;28;20418;-72
2021/06/02 01:41:22;;;;;;;5.47;4.30;;;12.20;1.00;;;;;;5033757;28;20480;-72
2021/06/02 01:44:25;;;;;;;4.90;4.30;;;12.20;1.00;;;;;;5049152;28;20795;-72
2021/06/02 01:47:35;;;;;;;8.47;4.37;;;12.10;1.00;;;;;;5053684;28;20854;-72
2021/06/02 01:50:17;;;;;;;6.00;4.07;;;;;;;;;;5036594;28;20421;-72
2021/06/02 01:53:02;;;;;;;8.70;4.50;;;12.00;1.00;;;;;;5041165;28;20405;-72
2021/06/02 01:55:51;;;;;;;7.00;3.87;;;12.00;1.00;;;;;;5041217;28;20472;-72
2021/06/02 01:58:41;;;;;;;5.33;4.13;;;11.90;1.00;;;;;;5055916;28;20939;-72
2021/06/02 02:01:31;;;;;;;7.80;4.57;;;11.90;1.00;;;;;;5038268;28;20394;-73
2021/06/02 02:04:19;;;;;;;5.10;4.13;;;11.80;1.00;;;;;;5037783;28;20519;-73
2021/06/02 02:07:07;;;;;;;6.50;4.40;;;11.80;1.00;;;;;;5037909;28;20399;-74
2021/06/02 02:09:51;;;;;;;6.53;4.20;;;11.80;1.00;;;;;;5056429;28;20434;-73
2021/06/02 02:12:35;;;;;;;9.30;4.80;;;11.70;1.00;;;;;;5051578;28;20772;-73
2021/06/02 02:15:30;;;;;;;6.57;4.30;;;11.80;1.00;;;;;;5057556;28;20433;-73
2021/06/02 02:18:11;;;;;;;8.03;4.53;;;11.70;1.00;;;;;;5056629;28;20485;-73
2021/06/02 02:20:58;;;;;;;5.37;4.03;;;11.70;1.00;;;;;;5041105;28;20503;-73
2021/06/02 02:23:41;;;;;;;8.97;4.00;;;11.70;1.00;;;;;;5037545;28;20536;-73
2021/06/02 02:26:26;;;;;;;12.83;4.63;;;11.70;1.00;;;;;;5037625;28;20758;-73
2021/06/02 02:29:13;;;;;;;6.00;4.10;;;11.70;1.00;;;;;;5036962;28;20426;-73
2021/06/02 02:32:02;;;;;;;7.37;4.80;;;11.70;1.00;;;;;;5037611;28;20398;-72
2021/06/02 02:34:41;;;;;;;5.50;4.17;;;11.60;1.00;;;;;;5037451;28;20473;-73
2021/06/02 02:37:58;;;;;;;5.60;4.43;;;11.60;1.00;;;;;;5037291;28;20453;-73
2021/06/02 02:40:45;;;;;;;6.30;4.30;;;11.60;1.00;;;;;;5035081;28;20441;-73
2021/06/02 02:43:27;;;;;;;9.40;4.50;;;11.60;1.00;;;;;;5031391;28;20462;-73
2021/06/02 02:46:07;;;;;;;8.73;5.20;;;11.60;1.00;;;;;;5015200;28;20895;-72
2021/06/02 02:49:19;;;;;;;5.83;3.60;;;11.50;1.00;;;;;;5027442;28;20415;-72
2021/06/02 02:52:10;;;;;;;7.80;4.50;;;11.50;1.00;;;;;;4917622;29;20432;-72
2021/06/02 02:54:53;;;;;;;7.03;4.50;;;11.50;1.00;;;;;;4918085;29;20432;-72
2021/06/02 02:57:28;;;;;;;19.53;4.80;;;11.40;1.00;;;;;;4918043;29;20842;-72
2021/06/02 03:00:14;;;;;;;10.07;4.53;;;11.40;1.00;;;;;;4918328;29;20474;-72
2021/06/02 03:03:09;;;;;;;12.47;5.00;;;11.30;1.00;;;;;;4917917;29;20420;-72
2021/06/02 03:06:22;;;;;;;6.03;4.57;;;11.30;1.00;;;;;;4918224;29;20436;-72
2021/06/02 03:09:11;;;;;;;8.80;4.13;;;11.30;1.00;;;;;;4886179;29;20848;-72
2021/06/02 03:12:05;;;;;;;4.83;3.90;;;11.30;1.00;;;;;;4880625;29;20411;-73
2021/06/02 03:14:53;;;;;;;9.63;5.10;;;11.30;1.00;;;;;;4880657;29;20511;-73
2021/06/02 03:18:05;;;;;;;5.00;4.00;;;11.20;1.00;;;;;;4899938;29;20504;-73
2021/06/02 03:20:57;;;;;;;6.87;4.40;;;11.20;1.00;;;;;;4901212;29;20414;-73
2021/06/02 03:23:23;;;;;;;5.37;3.67;;;11.20;1.00;;;;;;4879907;29;20462;-73
2021/06/02 03:25:58;;;;;;;7.17;4.43;;;11.20;1.00;;;;;;4880335;29;20441;-73
2021/06/02 03:29:07;;;;;;;6.40;4.20;;;11.20;1.00;;;;;;4871057;29;20269;-73
2021/06/02 03:31:40;;;;;;;14.83;4.50;;;11.20;1.00;;;;;;4861904;29;20944;-72
2021/06/02 03:34:11;;;;;;;13.50;4.77;;;11.20;1.00;;;;;;4866941;29;20949;-72
2021/06/02 03:37:09;;;;;;;7.40;4.53;;;11.20;1.00;;;;;;4880018;29;20410;-72
2021/06/02 03:40:01;;;;;;;6.40;4.77;;;11.20;1.00;;;;;;4879746;29;20818;-71
2021/06/02 03:42:53;;;;;;;7.87;4.30;;;11.10;1.00;;;;;;4879889;29;20516;-72
2021/06/02 03:45:28;;;;;;;5.83;4.30;;;11.10;1.00;;;;;;4898548;29;20439;-73
2021/06/02 03:48:26;;;;;;;9.00;4.70;;;11.20;1.00;;;;;;4917295;29;20432;-74
2021/06/02 03:51:02;;;;;;;14.10;6.10;;;;;;;;;;4861587;29;20415;-73
2021/06/02 03:54:10;;;;;;;8.57;4.90;;;11.10;1.00;;;;;;4861141;29;20537;-73
2021/06/02 04:00:19;;;;;;;13.37;5.30;;;11.20;1.00;;;;;;4883083;29;20457;-74
2021/06/02 04:02:58;;;;;;;8.20;4.50;;;11.20;1.00;;;;;;4917822;29;20790;-73
2021/06/02 04:05:41;;;;;;;6.40;4.53;;;11.20;1.00;;;;;;4917390;29;20405;-80
2021/06/02 04:12:07;;;;;;;12.13;5.20;;;11.30;1.00;;;;;;4920872;29;20438;-79
2021/06/02 04:15:19;;;;;;;12.53;5.90;;;11.30;1.00;;;;;;4917094;29;20767;-79
2021/06/02 04:24:29;;;;;;;11.97;5.33;;;11.40;1.00;;;;;;4921065;29;20512;-79
2021/06/02 04:30:18;;;;;;;8.53;5.07;;;11.50;1.00;;;;;;4973673;28;20389;-79
2021/06/02 04:32:49;;;;;;;9.30;4.97;;;11.50;1.00;;;;;;4992983;28;20414;-74
2021/06/02 04:35:19;;;;;;;10.67;5.17;;;11.60;1.00;;;;;;5037086;28;20429;-76
2021/06/02 04:37:46;;;;;;;5.87;4.37;;;11.60;1.00;;;;;;5034819;28;20806;-72
2021/06/02 04:40:13;;;;;;;8.50;4.93;;;11.60;1.00;;;;;;5051668;28;20395;-71
2021/06/02 04:42:43;;;;;;;5.40;4.17;;;11.70;1.00;;;;;;5054304;28;20390;-72
2021/06/02 04:45:16;;;;;;;6.57;4.30;;;11.70;1.00;;;;;;5054464;28;20984;-72
2021/06/02 04:48:01;;;;;;;8.80;5.30;;;11.80;1.00;;;;;;5052625;28;20427;-74
2021/06/02 04:51:15;;;;;;;9.60;4.57;;;11.80;1.00;;;;;;5034981;28;20395;-74
2021/06/02 04:54:18;;;;;;;8.17;4.43;;;11.90;1.00;;;;;;5009860;28;20904;-76
2021/06/02 04:57:17;;;;;;;11.37;5.13;;;12.00;1.00;;;;;;5012872;28;20406;-74
2021/06/02 05:00:19;;;;;;;7.20;4.60;;;12.00;1.00;;;;;;5012688;28;20404;-75
2021/06/02 05:03:07;;;;;;;8.67;4.80;;;12.20;1.00;;;;;;4996650;28;20433;-75
2021/06/02 05:06:09;;;;;;;8.63;4.60;;;12.20;1.00;;;;;;5012774;28;20784;-75
2021/06/02 05:12:52;;;;;;;9.67;4.77;;;12.50;1.00;;;;;;4992882;28;20467;-75
2021/06/02 05:22:38;;;;;;;7.37;4.47;;;12.90;1.00;;;;;;5009884;28;20411;-75
2021/06/02 05:25:31;;;;;;;8.07;4.47;;;13.00;1.00;;;;;;5008670;28;20503;-73
2021/06/02 05:28:07;;;;;;;8.73;4.90;;;;;;;;;;5004677;28;20461;-73
2021/06/02 05:31:10;;;;;;;9.10;5.30;;;13.20;1.00;;;;;;5024282;28;20461;-73
2021/06/02 05:33:59;;;;;;;9.37;4.90;;;13.40;1.00;;;;;;5053187;28;20425;-73
2021/06/02 05:36:25;;;;;;;10.53;4.60;;;;;;;;;;5052839;28;20916;-73
2021/06/02 05:39:13;;;;;;;9.07;5.10;;;13.70;1.00;;;;;;5052925;28;20387;-73
2021/06/02 05:41:57;;;;;;;8.37;4.43;;;13.80;1.00;;;;;;5046344;28;20419;-73
2021/06/02 05:44:51;;;;;;;6.90;4.30;;;14.00;1.00;;;;;;5036811;28;20449;-73
2021/06/02 05:47:53;;;;;;;4.97;3.60;;;14.10;1.00;;;;;;5052242;28;20464;-73
2021/06/02 05:50:20;;;;;;;7.00;4.23;;;;;;;;;;5045956;28;20410;-73
2021/06/02 05:53:20;;;;;;;5.47;3.67;;;14.40;1.00;;;;;;5048671;28;20453;-73
2021/06/02 05:56:11;;;;;;;5.17;3.70;;;14.60;1.00;;;;;;5052446;28;20413;-73
2021/06/02 05:58:49;;;;;;;5.50;3.80;;;14.80;1.00;;;;;;5036982;28;20914;-73
2021/06/02 06:01:27;;;;;;;4.77;3.40;;;15.00;1.00;;;;;;5048190;28;20381;-73
2021/06/02 06:04:25;;;;;;;3.63;3.17;;;15.10;1.00;;;;;;5052083;28;20754;-73
2021/06/02 06:07:13;;;;;;;8.27;3.50;;;15.30;1.00;;;;;;5038281;28;20430;-74
2021/06/02 06:10:01;;;;;;;12.03;4.03;;;15.50;1.00;;;;;;5032507;28;20442;-75
2021/06/02 06:12:36;;;;;;;4.63;3.47;;;15.50;1.00;;;;;;5045348;28;20488;-74
2021/06/02 06:15:32;;;;;;;8.50;3.87;;;15.70;1.00;;;;;;5052642;28;20431;-74
2021/06/02 06:18:08;;;;;;;4.63;3.30;;;15.80;1.00;;;;;;5052792;28;20423;-73
2021/06/02 06:20:34;;;;;;;4.80;3.33;;;;;;;;;;5052270;28;20422;-73
2021/06/02 06:23:19;;;;;;;6.03;4.10;;;16.10;1.00;;;;;;5045159;28;20438;-73
2021/06/02 06:25:52;;;;;;;6.80;3.80;;;16.30;1.00;;;;;;5037083;28;20442;-73
2021/06/02 06:28:18;;;;;;;6.53;3.47;;;;;;;;;;5032452;28;20418;-72
2021/06/02 06:30:47;;;;;;;4.03;3.40;;;16.60;1.00;;;;;;5032100;28;20388;-73
2021/06/02 06:33:16;;;;;;;4.63;3.33;;;16.70;1.00;;;;;;5032870;28;20453;-72
2021/06/02 06:35:44;;;;;;;4.27;3.27;;;16.90;1.00;;;;;;5033048;28;20362;-73
2021/06/02 06:38:14;;;;;;;4.60;3.50;;;17.10;1.00;;;;;;5032431;28;20396;-73
2021/06/02 06:40:40;;;;;;;3.90;3.27;;;;;;;;;;5032434;28;20392;-73
2021/06/02 06:43:12;;;;;;;5.53;3.27;;;17.30;1.00;;;;;;5033764;28;20391;-73
2021/06/02 06:45:40;;;;;;;4.47;2.90;;;17.40;1.00;;;;;;5036059;28;20475;-73
2021/06/02 06:48:21;;;;;;;4.47;3.20;;;17.50;1.00;;;;;;5036773;28;20374;-74
2021/06/02 06:50:54;;;;;;;4.00;2.80;;;17.70;1.00;;;;;;5036266;28;20420;-74
2021/06/02 06:53:20;;;;;;;4.40;3.30;;;;;;;;;;5036021;28;20434;-74
2021/06/02 06:55:46;;;;;;;3.67;2.70;;;;;;;;;;5035860;28;20864;-74
2021/06/02 06:58:13;;;;;;;3.77;3.20;;;;;;;;;;5035850;28;20397;-74
2021/06/02 07:00:39;;;;;;;2.97;2.67;;;;;;;;;;5035897;28;20393;-74
2021/06/02 07:03:05;;;;;;;4.80;2.80;;;;;;;;;;5051371;28;20428;-74
2021/06/02 07:05:31;;;;;;;5.97;3.57;;;;;;;;;;5035502;28;20433;-74
2021/06/02 07:07:58;;;;;;;2.93;2.67;;;18.70;1.00;;;;;;5044888;28;20914;-74
2021/06/02 07:10:23;;;;;;;5.03;2.93;;;18.90;1.00;;;;;;5053768;28;20499;-74
2021/06/02 07:12:49;;;;;;;15.07;4.63;;;19.10;1.00;;;;;;5059007;28;20423;-74
2021/06/02 07:15:17;;;;;;;10.23;2.93;;;19.30;1.00;;;;;;5035656;28;20163;-74
2021/06/02 07:17:47;;;;;;;4.17;3.17;;;;;;;;;;5035769;28;20955;-74
2021/06/02 07:20:24;;;;;;;3.80;3.00;;;19.50;1.00;;;;;;5035267;28;20427;-74
2021/06/02 07:22:51;;;;;;;4.27;3.30;;;19.60;1.00;;;;;;5035270;28;20388;-74
2021/06/02 07:25:22;;;;;;;4.53;3.00;;;19.80;1.00;;;;;;5034918;28;20502;-74
2021/06/02 07:27:49;;;;;;;13.37;2.93;;;;;;;;;;5035299;28;20406;-74
2021/06/02 07:30:16;;;;;;;2.87;2.60;;;20.00;1.00;;;;;;5035110;28;20409;-74
2021/06/02 07:32:42;;;;;;;3.93;3.07;;;20.10;1.00;;;;;;5035535;28;20423;-73
2021/06/02 07:35:09;;;;;;;4.77;3.43;;;20.20;1.00;;;;;;5033809;28;20414;-73
2021/06/02 07:37:35;;;;;;;6.00;3.50;;;;;;;;;;5035056;28;20415;-73
2021/06/02 07:40:01;;;;;;;5.23;3.70;;;20.40;1.00;;;;;;5035044;28;20405;-72
2021/06/02 07:42:27;;;;;;;4.93;3.40;;;20.60;1.00;;;;;;5035033;28;20456;-72
2021/06/02 07:44:54;;;;;;;14.70;3.40;;;20.70;1.00;;;;;;5034954;28;20925;-72
2021/06/02 07:47:20;;;;;;;4.27;2.83;;;20.80;1.00;;;;;;5035007;28;20409;-73
2021/06/02 07:49:46;;;;;;;5.10;3.00;;;21.00;1.00;;;;;;5035387;28;20461;-73
2021/06/02 07:52:11;;;;;;;4.07;2.83;;;21.10;1.00;;;;;;5035113;28;20443;-73
2021/06/02 07:54:38;;;;;;;3.70;2.97;;;;;;;;;;5034692;28;20430;-73
2021/06/02 07:57:03;;;;;;;3.70;2.80;;;21.40;1.00;;;;;;5034798;28;20411;-73
2021/06/02 07:59:30;;;;;;;4.70;2.70;;;;;;;;;;5034816;28;20375;-73
2021/06/02 08:01:55;;;;;;;4.30;2.60;;;21.50;1.00;;;;;;5034800;28;20441;-73
2021/06/02 08:04:21;;;;;;;3.17;2.40;;;;;;;;;;5034938;28;20478;-72
2021/06/02 08:06:47;;;;;;;3.87;2.50;;;21.80;1.00;;;;;;5038801;28;20173;-72
2021/06/02 08:09:17;;;;;;;4.70;2.40;;;;;;;;;;5039902;28;20884;-73
2021/06/02 08:11:51;;;;;;;23.30;3.03;;;21.80;1.00;;;;;;5054781;28;20189;-73
2021/06/02 08:14:16;;;;;;;3.17;2.80;;;21.80;1.00;;;;;;5055307;28;20488;-73
2021/06/02 08:16:42;;;;;;;4.63;2.60;;;22.00;1.00;;;;;;5055044;28;20976;-72
2021/06/02 08:19:08;;;;;;;5.33;2.77;;;22.10;1.00;;;;;;5046148;28;20186;-73
2021/06/02 08:21:34;;;;;;;3.57;2.60;;;22.10;1.00;;;;;;5036719;28;20420;-73
2021/06/02 08:24:01;;;;;;;7.00;2.90;;;22.20;1.00;;;;;;5054919;28;20629;-74
2021/06/02 08:26:27;;;;;;;5.70;2.80;;;;;;;;;;5046913;28;20971;-74
2021/06/02 08:28:53;;;;;;;4.27;2.50;;;22.40;1.00;;;;;;5051354;28;20425;-74
2021/06/02 08:31:19;;;;;;;2.87;2.60;;;;;;;;;;5054058;28;20801;-74
2021/06/02 08:33:44;;;;;;;3.00;2.40;;;22.70;1.00;;;;;;5054113;28;20206;-74
2021/06/02 08:36:10;;;;;;;5.63;2.40;;;22.80;1.00;;;;;;5053808;28;20377;-74
2021/06/02 08:38:36;;;;;;;8.47;2.80;;;22.90;1.00;;;;;;5052366;28;20189;-76
2021/06/02 08:41:05;;;;;;;2.40;2.20;;;23.10;1.00;;;;;;5051755;28;20529;-75
2021/06/02 08:43:31;;;;;;;6.17;2.57;;;23.30;1.00;;;;;;5053639;28;20406;-74
2021/06/02 08:45:57;;;;;;;2.80;2.40;;;23.30;1.00;;;;;;5053647;28;20377;-74
2021/06/02 08:48:23;;;;;;;6.27;2.40;;;23.40;1.00;;;;;;5053978;28;20485;-74
2021/06/02 08:50:49;;;;;;;2.70;2.47;;;23.40;1.00;;;;;;5052118;28;20550;-73
2021/06/02 08:53:19;;;;;;;2.80;2.50;;;23.60;1.00;;;;;;5052570;28;20406;-73
2021/06/02 08:55:46;;;;;;;3.83;2.17;;;23.80;1.00;;;;;;5053237;28;20612;-74
2021/06/02 08:58:19;;;;;;;4.70;2.50;;;23.90;1.00;;;;;;5053578;28;20391;-74
2021/06/02 09:00:46;;;;;;;5.87;2.40;;;23.90;1.00;;;;;;5053385;28;20399;-72
2021/06/02 09:03:15;;;;;;;2.30;2.10;;;24.00;1.00;;;;;;5053604;28;20396;-72
2021/06/02 09:05:41;;;;;;;2.97;2.47;;;24.10;1.00;;;;;;5052761;28;20410;-74
2021/06/02 09:08:13;;;;;;;2.00;1.90;;;24.20;1.00;;;;;;5053397;28;20396;-74
2021/06/02 09:10:42;;;;;;;2.60;2.10;;;24.20;1.00;;;;;;5053108;28;20533;-74
2021/06/02 09:13:22;;;;;;;2.57;2.30;;;24.40;1.00;;;;;;5052960;28;20415;-74
2021/06/02 09:15:50;;;;;;;3.23;2.67;;;24.50;1.00;;;;;;5040838;28;20447;-73
2021/06/02 09:18:21;;;;;;;4.23;2.00;;;24.60;1.00;;;;;;5033095;28;20394;-72
2021/06/02 09:20:49;;;;;;;3.67;2.50;;;24.70;1.00;;;;;;5041466;28;20408;-73
2021/06/02 09:23:32;;;;;;;6.07;2.87;;;24.90;1.00;;;;;;5053086;28;20593;-73
2021/06/02 09:25:58;;;;;;;5.40;3.03;;;;;;;;;;5052190;28;20760;-73
2021/06/02 09:28:54;;;;;;;4.70;3.03;;;24.90;1.00;;;;;;5035318;28;20425;-72
2021/06/02 09:31:20;;;;;;;2.30;2.00;;;;;;;;;;5052890;28;20433;-72
2021/06/02 09:33:46;;;;;;;3.00;2.10;;;25.00;1.00;;;;;;5053145;28;20449;-73
2021/06/02 09:36:12;;;;;;;3.53;2.57;;;;;;;;;;5053151;28;20948;-74
2021/06/02 09:38:37;;;;;;;5.43;2.53;;;25.10;1.00;;;;;;5047436;28;20672;-74
2021/06/02 09:41:03;;;;;;;2.67;2.47;;;25.20;1.00;;;;;;5053482;28;20417;-74
2021/06/02 09:43:33;;;;;;;2.50;2.07;;;25.30;1.00;;;;;;5052812;28;20249;-74
2021/06/02 09:46:09;;;;;;;2.10;2.00;;;25.40;1.00;;;;;;5052902;28;20634;-73
2021/06/02 09:48:46;;;;;;;2.63;2.40;;;25.40;1.00;;;;;;5052970;28;20879;-73
2021/06/02 09:51:29;;;;;;;3.60;2.50;;;25.50;1.00;;;;;;5052757;28;20858;-73
2021/06/02 09:54:00;;;;;;;6.67;2.27;;;25.50;1.00;;;;;;5053073;28;20467;-73
2021/06/02 09:56:39;;;;;;;5.80;2.20;;;25.60;1.00;;;;;;5052758;28;20397;-73
2021/06/02 09:59:08;;;;;;;3.40;2.10;;;25.70;1.00;;;;;;5052799;28;20397;-73
2021/06/02 10:01:57;;;;;;;3.53;2.00;;;25.70;1.00;;;;;;5052678;28;20388;-73
2021/06/02 10:04:38;;;;;;;6.67;2.30;;;25.70;1.00;;;;;;5053049;28;20750;-72
2021/06/02 10:07:16;;;;;;;7.63;2.60;;;25.80;1.00;;;;;;5052552;28;20905;-73
2021/06/02 10:09:43;;;;;;;2.47;2.27;;;;;;;;;;5053447;28;20502;-74
2021/06/02 10:12:10;;;;;;;5.70;2.20;;;25.90;1.00;;;;;;5052745;28;20517;-74
2021/06/02 10:14:41;;;;;;;8.53;2.70;;;25.90;1.00;;;;;;5052290;28;20944;-74
2021/06/02 10:17:36;;;;;;;2.50;2.20;;;25.90;1.00;;;;;;5052487;28;20990;-74
2021/06/02 10:20:13;;;;;;;4.37;2.17;;;26.00;1.00;;;;;;5053980;28;20420;-74
2021/06/02 10:22:39;;;;;;;3.30;2.03;;;26.10;1.00;;;;;;5056525;28;20444;-74
2021/06/02 10:25:08;;;;;;;2.30;2.10;;;26.20;1.00;;;;;;5056360;28;20432;-74
2021/06/02 10:27:34;;;;;;;4.00;2.20;;;26.20;1.00;;;;;;5056190;28;20399;-74
2021/06/02 10:30:00;;;;;;;2.40;2.10;;;26.30;1.00;;;;;;5056063;28;20396;-74
2021/06/02 10:32:26;;;;;;;2.57;2.37;;;26.30;1.00;;;;;;5056435;28;20397;-74
2021/06/02 10:34:54;;;;;;;2.47;2.10;;;26.30;1.00;;;;;;5056531;28;20497;-73
2021/06/02 10:37:22;;;;;;;3.53;2.20;;;26.30;1.00;;;;;;5056288;28;20471;-73
2021/06/02 10:40:04;;;;;;;2.57;1.97;;;26.40;1.00;;;;;;5056154;28;20916;-73
2021/06/02 10:42:52;;;;;;;2.30;2.10;;;26.30;1.00;;;;;;5056179;28;21088;-73
2021/06/02 10:45:25;;;;;;;4.73;2.63;;;26.30;1.00;;;;;;5056154;28;20393;-73
2021/06/02 10:47:59;;;;;;;3.13;2.60;;;26.40;1.00;;;;;;5056160;28;20632;-73
2021/06/02 10:50:46;;;;;;;4.50;2.40;;;26.60;1.00;;;;;;5056362;28;20401;-73
2021/06/02 10:53:18;;;;;;;4.70;1.90;;;26.70;1.00;;;;;;5056116;28;20894;-73
2021/06/02 10:55:44;;;;;;;3.13;2.33;;;;;;;;;;5055959;28;20488;-73
2021/06/02 10:58:17;;;;;;;2.53;2.33;;;26.80;1.00;;;;;;5055919;28;20486;-73
2021/06/02 11:00:43;;;;;;;4.00;2.43;;;26.90;1.00;;;;;;5055905;28;20397;-73
2021/06/02 11:03:28;;;;;;;2.77;2.10;;;27.00;1.00;;;;;;5055823;28;20761;-73
2021/06/02 11:06:06;;;;;;;2.73;2.53;;;27.00;1.00;;;;;;5056065;28;20941;-74
2021/06/02 11:08:50;;;;;;;2.63;2.43;;;27.00;1.00;;;;;;5055685;28;20455;-74
2021/06/02 11:11:26;;;;;;;2.60;2.10;;;26.90;1.00;;;;;;5055556;28;20459;-73
2021/06/02 11:14:17;;;;;;;4.87;2.60;;;27.00;1.00;;;;;;5055886;28;20471;-73
2021/06/02 11:16:43;;;;;;;2.03;1.93;;;27.10;1.00;;;;;;5035751;28;20427;-74
2021/06/02 11:19:13;;;;;;;2.57;2.33;;;27.20;1.00;;;;;;5035535;28;20393;-74
2021/06/02 11:21:58;;;;;;;3.53;2.30;;;27.20;1.00;;;;;;5035938;28;20423;-74
2021/06/02 11:24:35;;;;;;;2.33;2.03;;;27.30;1.00;;;;;;5035296;28;20388;-74
2021/06/02 11:27:12;;;;;;;1.97;1.87;;;27.40;1.00;;;;;;5035487;28;20898;-73
2021/06/02 11:29:54;;;;;;;3.27;2.10;;;27.40;1.00;;;;;;5034545;28;20878;-73
2021/06/02 11:32:25;;;;;;;2.50;2.30;;;27.50;1.00;;;;;;5035356;28;20430;-74
2021/06/02 11:34:55;;;;;;;10.53;2.57;;;27.70;1.00;;;;;;5035493;28;20443;-73
2021/06/02 11:37:24;;;;;;;2.07;1.97;;;27.70;1.00;;;;;;5035314;28;20395;-73
2021/06/02 11:39:54;;;;;;;2.80;1.97;;;27.70;1.00;;;;;;5035213;28;20979;-73
2021/06/02 11:42:52;;;;;;;4.10;2.27;;;27.70;1.00;;;;;;5040410;28;20425;-73
2021/06/02 11:45:26;;;;;;;6.97;2.37;;;27.60;1.00;;;;;;4996491;28;20764;-73
2021/06/02 11:47:56;;;;;;;2.30;2.10;;;27.40;1.00;;;;;;5013102;28;20404;-73
2021/06/02 11:50:24;;;;;;;8.47;2.50;;;27.30;1.00;;;;;;5013322;28;20952;-74
2021/06/02 11:52:58;;;;;;;5.30;2.30;;;27.30;1.00;;;;;;5012953;28;20502;-73
2021/06/02 11:55:25;;;;;;;5.53;2.30;;;27.50;1.00;;;;;;5012858;28;20843;-73
2021/06/02 11:57:52;;;;;;;2.27;2.07;;;27.60;1.00;;;;;;5012844;28;20401;-73
2021/06/02 12:00:29;;;;;;;3.67;2.30;;;27.70;1.00;;;;;;5012858;28;20405;-73
2021/06/02 12:03:00;;;;;;;2.53;2.33;;;27.80;1.00;;;;;;5012673;28;20518;-74
2021/06/02 12:05:37;;;;;;;2.50;2.30;;;27.90;1.00;;;;;;5013091;28;20421;-74
2021/06/02 12:08:13;;;;;;;9.10;2.17;;;27.80;1.00;;;;;;5012600;28;20412;-75
2021/06/02 12:10:53;;;;;;;2.57;1.90;;;27.90;1.00;;;;;;5012527;28;20444;-74
2021/06/02 12:13:20;;;;;;;5.63;2.10;;;27.90;1.00;;;;;;5012597;28;20412;-73
2021/06/02 12:15:54;;;;;;;2.80;2.50;;;27.90;1.00;;;;;;5012097;28;20421;-73
2021/06/02 12:18:41;;;;;;;5.80;2.43;;;28.00;1.00;;;;;;5007983;28;20443;-75
2021/06/02 12:21:24;;;;;;;5.40;2.93;;;28.00;1.00;;;;;;5013479;28;20425;-74
2021/06/02 12:23:55;;;;;;;6.03;2.20;;;27.90;1.00;;;;;;5051519;28;20930;-74
2021/06/02 12:26:28;;;;;;;4.20;2.07;;;27.80;1.00;;;;;;5053941;28;20452;-74
2021/06/02 12:28:57;;;;;;;2.77;2.47;;;27.90;1.00;;;;;;5053837;28;20424;-74
2021/06/02 12:31:30;;;;;;;2.77;1.90;;;28.00;1.00;;;;;;5053850;28;20414;-73
2021/06/02 12:34:03;;;;;;;2.40;2.20;;;28.20;1.00;;;;;;5063704;28;20459;-73
2021/06/02 12:36:31;;;;;;;2.80;2.20;;;28.20;1.00;;;;;;5054024;28;20490;-74
2021/06/02 12:39:00;;;;;;;10.20;2.23;;;28.20;1.00;;;;;;5052575;28;20903;-75
2021/06/02 12:41:26;;;;;;;4.77;2.67;;;28.30;1.00;;;;;;5052960;28;20459;-75
2021/06/02 12:43:52;;;;;;;13.83;3.60;;;;;;;;;;5052607;28;20524;-73
2021/06/02 12:46:18;;;;;;;3.50;2.30;;;28.30;1.00;;;;;;5055957;28;20186;-75
2021/06/02 12:48:45;;;;;;;3.43;2.13;;;28.50;1.00;;;;;;5053345;28;20438;-74
2021/06/02 12:51:17;;;;;;;2.30;1.97;;;28.60;1.00;;;;;;5050704;28;20414;-74
2021/06/02 12:53:45;;;;;;;1.70;1.60;;;28.60;1.00;;;;;;5051814;28;20556;-74
2021/06/02 12:56:13;;;;;;;3.63;2.30;;;28.60;1.00;;;;;;5051592;28;20445;-74
2021/06/02 12:58:39;;;;;;;5.27;2.10;;;28.70;1.00;;;;;;5051425;28;20462;-74
2021/06/02 13:01:07;;;;;;;2.00;1.90;;;28.90;1.00;;;;;;5051662;28;20410;-74
2021/06/02 13:03:34;;;;;;;3.43;2.07;;;29.00;1.00;;;;;;5046494;28;20445;-74
2021/06/02 13:06:00;;;;;;;1.97;1.87;;;29.00;1.00;;;;;;5053756;28;20595;-74
2021/06/02 13:08:38;;;;;;;2.53;1.90;;;28.80;1.00;;;;;;5053204;28;20413;-74
2021/06/02 13:11:11;;;;;;;4.17;2.33;;;28.70;1.00;;;;;;5043087;28;20990;-74
2021/06/02 13:13:37;;;;;;;3.40;2.20;;;28.70;1.00;;;;;;5041567;28;20470;-74
2021/06/02 13:16:06;;;;;;;1.80;1.70;;;28.80;1.00;;;;;;5047234;28;20410;-73
2021/06/02 13:18:32;;;;;;;2.90;2.37;;;29.00;1.00;;;;;;5053173;28;20489;-73
2021/06/02 13:21:13;;;;;;;2.33;2.10;;;29.10;1.00;;;;;;5048317;28;20441;-73
2021/06/02 13:23:39;;;;;;;3.47;2.43;;;29.10;1.00;;;;;;5038328;28;20441;-73
2021/06/02 13:26:10;;;;;;;3.23;2.40;;;29.10;1.00;;;;;;5033046;28;20422;-73
2021/06/02 13:28:45;;;;;;;4.10;2.60;;;29.00;1.00;;;;;;5032917;28;20545;-73
2021/06/02 13:31:12;;;;;;;4.30;2.03;;;29.00;1.00;;;;;;5040219;28;20525;-77
2021/06/02 13:33:46;;;;;;;3.53;2.00;;;29.20;1.00;;;;;;5039324;28;20470;-76
2021/06/02 13:36:25;;;;;;;13.30;2.67;;;29.20;1.00;;;;;;5052034;28;20431;-72
2021/06/02 13:39:07;;;;;;;3.70;2.90;;;29.30;1.00;;;;;;5052295;28;20439;-72
2021/06/02 13:41:33;;;;;;;2.50;2.30;;;29.50;1.00;;;;;;5033312;28;20908;-72
2021/06/02 13:43:59;;;;;;;3.30;1.93;;;;;;;;;;5032898;28;20517;-72
2021/06/02 13:46:26;;;;;;;3.80;2.20;;;29.70;1.00;;;;;;5032432;28;20183;-72
2021/06/02 13:48:52;;;;;;;2.10;1.90;;;29.80;1.00;;;;;;5032896;28;20429;-75
2021/06/02 13:51:24;;;;;;;3.90;1.77;;;29.80;1.00;;;;;;5033319;28;20479;-75
2021/06/02 13:54:15;;;;;;;5.07;2.00;;;29.70;1.00;;;;;;5038389;28;20888;-76
2021/06/02 13:56:56;;;;;;;2.47;1.90;;;29.90;1.00;;;;;;5051035;28;20535;-76
2021/06/02 13:59:41;;;;;;;2.10;2.00;;;29.90;1.00;;;;;;5041601;28;20435;-75
2021/06/02 14:02:10;;;;;;;15.13;2.17;;;30.00;1.00;;;;;;5032750;28;20507;-75
2021/06/02 14:04:38;;;;;;;3.43;1.90;;;29.80;1.00;;;;;;5032790;28;20785;-75
2021/06/02 14:07:07;;;;;;;2.10;2.00;;;29.90;1.00;;;;;;5032927;28;20407;-74
2021/06/02 14:09:33;;;;;;;6.00;2.00;;;29.80;1.00;;;;;;5032576;28;20406;-74
2021/06/02 14:11:59;;;;;;;5.60;2.20;;;29.80;1.00;;;;;;5032474;28;20799;-74
2021/06/02 14:14:27;;;;;;;3.00;2.20;;;;;;;;;;5032316;28;20469;-74
2021/06/02 14:16:53;;;;;;;8.40;2.10;;;29.90;1.00;;;;;;5052034;28;20496;-74